sensor_id;sensor_type;location;lat;lon;timestamp;temperature;humidity
77523;SHT31;66637;-29.628;-49.938;2023-02-04T00:00:36;25.82;71.85
77523;SHT31;66637;-29.628;-49.938;2023-02-04T00:03:07;25.95;71.15
77523;SHT31;66637;-29.628;-49.938;2023-02-04T00:05:37;25.86;70.85
77523;SHT31;66637;-29.628;-49.938;2023-02-04T00:08:07;25.88;70.72
77523;SHT31;66637;-29.628;-49.938;2023-02-04T00:10:37;25.93;70.52
77523;SHT31;66637;-29.628;-49.938;2023-02-04T00:13:07;25.90;70.51
77523;SHT31;66637;-29.628;-49.938;2023-02-04T00:15:37;25.81;70.84
77523;SHT31;66637;-29.628;-49.938;2023-02-04T00:18:08;25.71;71.27
77523;SHT31;66637;-29.628;-49.938;2023-02-04T00:20:39;25.65;71.61
77523;SHT31;66637;-29.628;-49.938;2023-02-04T00:23:12;25.69;71.66
77523;SHT31;66637;-29.628;-49.938;2023-02-04T00:25:44;25.81;71.35
77523;SHT31;66637;-29.628;-49.938;2023-02-04T00:28:15;25.79;71.32
77523;SHT31;66637;-29.628;-49.938;2023-02-04T00:30:45;25.73;71.28
77523;SHT31;66637;-29.628;-49.938;2023-02-04T00:33:16;25.72;71.41
77523;SHT31;66637;-29.628;-49.938;2023-02-04T00:35:46;25.63;71.58
77523;SHT31;66637;-29.628;-49.938;2023-02-04T00:38:16;25.55;72.01
77523;SHT31;66637;-29.628;-49.938;2023-02-04T00:40:46;25.51;72.29
77523;SHT31;66637;-29.628;-49.938;2023-02-04T00:43:18;25.46;72.40
77523;SHT31;66637;-29.628;-49.938;2023-02-04T00:45:48;25.45;72.48
77523;SHT31;66637;-29.628;-49.938;2023-02-04T00:48:18;25.41;72.25
77523;SHT31;66637;-29.628;-49.938;2023-02-04T00:50:48;25.31;72.68
77523;SHT31;66637;-29.628;-49.938;2023-02-04T00:53:18;25.25;72.79
77523;SHT31;66637;-29.628;-49.938;2023-02-04T00:55:48;25.15;73.15
77523;SHT31;66637;-29.628;-49.938;2023-02-04T00:58:18;25.08;73.37
77523;SHT31;66637;-29.628;-49.938;2023-02-04T01:00:48;25.14;73.30
77523;SHT31;66637;-29.628;-49.938;2023-02-04T01:03:18;25.08;73.32
77523;SHT31;66637;-29.628;-49.938;2023-02-04T01:05:48;25.03;73.21
77523;SHT31;66637;-29.628;-49.938;2023-02-04T01:08:18;25.06;73.08
77523;SHT31;66637;-29.628;-49.938;2023-02-04T01:10:48;24.98;73.06
77523;SHT31;66637;-29.628;-49.938;2023-02-04T01:13:18;24.98;72.96
77523;SHT31;66637;-29.628;-49.938;2023-02-04T01:15:48;24.92;72.87
77523;SHT31;66637;-29.628;-49.938;2023-02-04T01:18:18;24.92;72.76
77523;SHT31;66637;-29.628;-49.938;2023-02-04T01:20:48;24.90;72.78
77523;SHT31;66637;-29.628;-49.938;2023-02-04T01:23:18;24.83;72.85
77523;SHT31;66637;-29.628;-49.938;2023-02-04T01:25:48;24.77;73.47
77523;SHT31;66637;-29.628;-49.938;2023-02-04T01:28:18;24.70;73.68
77523;SHT31;66637;-29.628;-49.938;2023-02-04T01:30:48;24.67;73.59
77523;SHT31;66637;-29.628;-49.938;2023-02-04T01:33:18;24.70;73.61
77523;SHT31;66637;-29.628;-49.938;2023-02-04T01:35:50;24.74;73.17
77523;SHT31;66637;-29.628;-49.938;2023-02-04T01:38:22;24.77;72.87
77523;SHT31;66637;-29.628;-49.938;2023-02-04T01:40:52;24.67;73.17
77523;SHT31;66637;-29.628;-49.938;2023-02-04T01:43:23;24.67;73.03
77523;SHT31;66637;-29.628;-49.938;2023-02-04T01:45:53;24.63;72.96
77523;SHT31;66637;-29.628;-49.938;2023-02-04T01:48:23;24.56;72.93
77523;SHT31;66637;-29.628;-49.938;2023-02-04T01:51:11;24.55;73.09
77523;SHT31;66637;-29.628;-49.938;2023-02-04T01:53:42;24.56;72.90
77523;SHT31;66637;-29.628;-49.938;2023-02-04T01:56:19;24.49;72.94
77523;SHT31;66637;-29.628;-49.938;2023-02-04T01:58:50;24.46;72.89
77523;SHT31;66637;-29.628;-49.938;2023-02-04T02:01:37;24.52;72.77
77523;SHT31;66637;-29.628;-49.938;2023-02-04T02:04:13;24.44;72.84
77523;SHT31;66637;-29.628;-49.938;2023-02-04T02:06:57;24.41;73.03
77523;SHT31;66637;-29.628;-49.938;2023-02-04T02:09:31;24.33;73.01
77523;SHT31;66637;-29.628;-49.938;2023-02-04T02:12:02;24.36;73.00
77523;SHT31;66637;-29.628;-49.938;2023-02-04T02:14:33;24.37;72.86
77523;SHT31;66637;-29.628;-49.938;2023-02-04T02:17:03;24.41;72.74
77523;SHT31;66637;-29.628;-49.938;2023-02-04T02:19:36;24.33;72.92
77523;SHT31;66637;-29.628;-49.938;2023-02-04T02:22:15;24.36;72.27
77523;SHT31;66637;-29.628;-49.938;2023-02-04T02:24:46;24.32;72.09
77523;SHT31;66637;-29.628;-49.938;2023-02-04T02:27:19;24.29;71.87
77523;SHT31;66637;-29.628;-49.938;2023-02-04T02:29:49;24.35;71.69
77523;SHT31;66637;-29.628;-49.938;2023-02-04T02:32:22;24.36;71.54
77523;SHT31;66637;-29.628;-49.938;2023-02-04T02:34:53;24.28;72.01
77523;SHT31;66637;-29.628;-49.938;2023-02-04T02:37:23;24.30;71.78
77523;SHT31;66637;-29.628;-49.938;2023-02-04T02:39:54;24.20;71.93
77523;SHT31;66637;-29.628;-49.938;2023-02-04T02:42:25;24.20;72.20
77523;SHT31;66637;-29.628;-49.938;2023-02-04T02:44:55;24.15;72.19
77523;SHT31;66637;-29.628;-49.938;2023-02-04T02:47:26;24.13;72.39
77523;SHT31;66637;-29.628;-49.938;2023-02-04T02:49:56;24.16;72.28
77523;SHT31;66637;-29.628;-49.938;2023-02-04T02:52:27;24.18;72.10
77523;SHT31;66637;-29.628;-49.938;2023-02-04T02:54:57;24.15;72.00
77523;SHT31;66637;-29.628;-49.938;2023-02-04T02:57:28;24.19;72.07
77523;SHT31;66637;-29.628;-49.938;2023-02-04T02:59:58;24.25;71.87
77523;SHT31;66637;-29.628;-49.938;2023-02-04T03:02:29;24.25;71.77
77523;SHT31;66637;-29.628;-49.938;2023-02-04T03:04:59;24.22;71.50
77523;SHT31;66637;-29.628;-49.938;2023-02-04T03:07:31;24.25;70.95
77523;SHT31;66637;-29.628;-49.938;2023-02-04T03:10:03;24.26;70.78
77523;SHT31;66637;-29.628;-49.938;2023-02-04T03:12:34;24.23;70.73
77523;SHT31;66637;-29.628;-49.938;2023-02-04T03:15:04;24.20;70.52
77523;SHT31;66637;-29.628;-49.938;2023-02-04T03:17:35;24.23;70.52
77523;SHT31;66637;-29.628;-49.938;2023-02-04T03:20:07;24.28;70.23
77523;SHT31;66637;-29.628;-49.938;2023-02-04T03:22:38;24.28;69.92
77523;SHT31;66637;-29.628;-49.938;2023-02-04T03:25:11;24.28;70.02
77523;SHT31;66637;-29.628;-49.938;2023-02-04T03:27:42;24.22;70.11
77523;SHT31;66637;-29.628;-49.938;2023-02-04T03:30:13;24.23;70.08
77523;SHT31;66637;-29.628;-49.938;2023-02-04T03:32:43;24.25;69.84
77523;SHT31;66637;-29.628;-49.938;2023-02-04T03:35:14;24.29;69.78
77523;SHT31;66637;-29.628;-49.938;2023-02-04T03:37:44;24.29;69.78
77523;SHT31;66637;-29.628;-49.938;2023-02-04T03:40:14;24.32;69.86
77523;SHT31;66637;-29.628;-49.938;2023-02-04T03:42:44;24.36;69.76
77523;SHT31;66637;-29.628;-49.938;2023-02-04T03:45:15;24.37;69.89
77523;SHT31;66637;-29.628;-49.938;2023-02-04T03:47:47;24.43;69.66
77523;SHT31;66637;-29.628;-49.938;2023-02-04T03:50:17;24.47;69.65
77523;SHT31;66637;-29.628;-49.938;2023-02-04T03:52:47;24.41;69.60
77523;SHT31;66637;-29.628;-49.938;2023-02-04T03:55:21;24.40;69.28
77523;SHT31;66637;-29.628;-49.938;2023-02-04T03:57:51;24.43;68.80
77523;SHT31;66637;-29.628;-49.938;2023-02-04T04:00:21;24.47;68.73
77523;SHT31;66637;-29.628;-49.938;2023-02-04T04:02:51;24.52;68.49
77523;SHT31;66637;-29.628;-49.938;2023-02-04T04:05:22;24.52;68.31
77523;SHT31;66637;-29.628;-49.938;2023-02-04T04:07:52;24.50;68.43
77523;SHT31;66637;-29.628;-49.938;2023-02-04T04:10:22;24.52;68.14
77523;SHT31;66637;-29.628;-49.938;2023-02-04T04:12:52;24.47;68.20
77523;SHT31;66637;-29.628;-49.938;2023-02-04T04:15:22;24.49;67.95
77523;SHT31;66637;-29.628;-49.938;2023-02-04T04:17:52;24.55;67.88
77523;SHT31;66637;-29.628;-49.938;2023-02-04T04:20:22;24.52;67.91
77523;SHT31;66637;-29.628;-49.938;2023-02-04T04:22:54;24.57;67.78
77523;SHT31;66637;-29.628;-49.938;2023-02-04T04:25:23;24.66;67.35
77523;SHT31;66637;-29.628;-49.938;2023-02-04T04:27:53;24.61;67.48
77523;SHT31;66637;-29.628;-49.938;2023-02-04T04:30:23;24.64;67.80
77523;SHT31;66637;-29.628;-49.938;2023-02-04T04:32:53;24.67;67.93
77523;SHT31;66637;-29.628;-49.938;2023-02-04T04:35:23;24.71;67.88
77523;SHT31;66637;-29.628;-49.938;2023-02-04T04:37:53;24.73;67.91
77523;SHT31;66637;-29.628;-49.938;2023-02-04T04:40:23;24.77;68.30
77523;SHT31;66637;-29.628;-49.938;2023-02-04T04:42:53;24.77;68.35
77523;SHT31;66637;-29.628;-49.938;2023-02-04T04:45:23;24.87;67.42
77523;SHT31;66637;-29.628;-49.938;2023-02-04T04:47:53;24.88;67.12
77523;SHT31;66637;-29.628;-49.938;2023-02-04T04:50:24;24.88;66.70
77523;SHT31;66637;-29.628;-49.938;2023-02-04T04:52:59;24.84;66.76
77523;SHT31;66637;-29.628;-49.938;2023-02-04T04:55:29;24.88;66.46
77523;SHT31;66637;-29.628;-49.938;2023-02-04T04:57:59;24.88;66.11
77523;SHT31;66637;-29.628;-49.938;2023-02-04T05:00:29;24.90;66.09
77523;SHT31;66637;-29.628;-49.938;2023-02-04T05:03:00;24.86;65.81
77523;SHT31;66637;-29.628;-49.938;2023-02-04T05:05:30;24.86;66.36
77523;SHT31;66637;-29.628;-49.938;2023-02-04T05:08:01;24.84;66.17
77523;SHT31;66637;-29.628;-49.938;2023-02-04T05:10:32;24.86;65.93
77523;SHT31;66637;-29.628;-49.938;2023-02-04T05:13:02;24.88;65.81
77523;SHT31;66637;-29.628;-49.938;2023-02-04T05:15:32;24.91;65.56
77523;SHT31;66637;-29.628;-49.938;2023-02-04T05:18:02;24.95;65.67
77523;SHT31;66637;-29.628;-49.938;2023-02-04T05:20:32;24.94;65.62
77523;SHT31;66637;-29.628;-49.938;2023-02-04T05:23:04;24.91;66.02
77523;SHT31;66637;-29.628;-49.938;2023-02-04T05:25:33;24.87;66.06
77523;SHT31;66637;-29.628;-49.938;2023-02-04T05:28:04;24.83;66.31
77523;SHT31;66637;-29.628;-49.938;2023-02-04T05:30:34;24.81;66.37
77523;SHT31;66637;-29.628;-49.938;2023-02-04T05:33:04;24.86;66.34
77523;SHT31;66637;-29.628;-49.938;2023-02-04T05:35:34;24.86;65.91
77523;SHT31;66637;-29.628;-49.938;2023-02-04T05:38:04;24.87;66.03
77523;SHT31;66637;-29.628;-49.938;2023-02-04T05:40:34;24.84;65.99
77523;SHT31;66637;-29.628;-49.938;2023-02-04T05:43:04;24.86;66.06
77523;SHT31;66637;-29.628;-49.938;2023-02-04T05:45:35;24.81;66.24
77523;SHT31;66637;-29.628;-49.938;2023-02-04T05:48:05;24.79;66.41
77523;SHT31;66637;-29.628;-49.938;2023-02-04T05:50:35;24.74;66.31
77523;SHT31;66637;-29.628;-49.938;2023-02-04T05:53:10;24.66;66.95
77523;SHT31;66637;-29.628;-49.938;2023-02-04T05:55:40;24.52;67.56
77523;SHT31;66637;-29.628;-49.938;2023-02-04T05:58:10;24.30;69.65
77523;SHT31;66637;-29.628;-49.938;2023-02-04T06:00:40;24.37;71.62
77523;SHT31;66637;-29.628;-49.938;2023-02-04T06:03:10;24.41;73.08
77523;SHT31;66637;-29.628;-49.938;2023-02-04T06:05:41;24.39;71.44
77523;SHT31;66637;-29.628;-49.938;2023-02-04T06:08:12;24.37;71.03
77523;SHT31;66637;-29.628;-49.938;2023-02-04T06:10:44;24.36;71.70
77523;SHT31;66637;-29.628;-49.938;2023-02-04T06:13:14;24.32;71.84
77523;SHT31;66637;-29.628;-49.938;2023-02-04T06:15:44;24.22;71.53
77523;SHT31;66637;-29.628;-49.938;2023-02-04T06:18:14;24.13;71.99
77523;SHT31;66637;-29.628;-49.938;2023-02-04T06:20:44;24.06;72.19
77523;SHT31;66637;-29.628;-49.938;2023-02-04T06:23:14;24.08;71.80
77523;SHT31;66637;-29.628;-49.938;2023-02-04T06:25:46;24.06;71.98
77523;SHT31;66637;-29.628;-49.938;2023-02-04T06:28:18;24.05;72.01
77523;SHT31;66637;-29.628;-49.938;2023-02-04T06:30:48;24.05;72.11
77523;SHT31;66637;-29.628;-49.938;2023-02-04T06:33:18;24.09;71.98
77523;SHT31;66637;-29.628;-49.938;2023-02-04T06:35:49;24.09;72.44
77523;SHT31;66637;-29.628;-49.938;2023-02-04T06:38:19;24.15;72.47
77523;SHT31;66637;-29.628;-49.938;2023-02-04T06:40:49;24.18;72.29
77523;SHT31;66637;-29.628;-49.938;2023-02-04T06:43:22;24.18;72.29
77523;SHT31;66637;-29.628;-49.938;2023-02-04T06:45:53;24.20;72.41
77523;SHT31;66637;-29.628;-49.938;2023-02-04T06:48:23;24.19;72.42
77523;SHT31;66637;-29.628;-49.938;2023-02-04T06:50:53;24.23;72.23
77523;SHT31;66637;-29.628;-49.938;2023-02-04T06:53:23;24.20;72.69
77523;SHT31;66637;-29.628;-49.938;2023-02-04T06:55:53;24.13;72.62
77523;SHT31;66637;-29.628;-49.938;2023-02-04T06:58:23;24.15;72.52
77523;SHT31;66637;-29.628;-49.938;2023-02-04T07:00:53;24.06;72.89
77523;SHT31;66637;-29.628;-49.938;2023-02-04T07:03:23;24.05;72.88
77523;SHT31;66637;-29.628;-49.938;2023-02-04T07:05:53;24.06;72.59
77523;SHT31;66637;-29.628;-49.938;2023-02-04T07:08:23;24.10;72.34
77523;SHT31;66637;-29.628;-49.938;2023-02-04T07:10:53;24.16;72.30
77523;SHT31;66637;-29.628;-49.938;2023-02-04T07:13:23;24.20;72.14
77523;SHT31;66637;-29.628;-49.938;2023-02-04T07:15:53;24.18;72.85
77523;SHT31;66637;-29.628;-49.938;2023-02-04T07:18:23;24.08;73.44
77523;SHT31;66637;-29.628;-49.938;2023-02-04T07:20:53;24.10;74.21
77523;SHT31;66637;-29.628;-49.938;2023-02-04T07:23:23;24.10;73.82
77523;SHT31;66637;-29.628;-49.938;2023-02-04T07:25:54;24.10;73.88
77523;SHT31;66637;-29.628;-49.938;2023-02-04T07:28:27;24.18;72.49
77523;SHT31;66637;-29.628;-49.938;2023-02-04T07:30:57;24.30;70.63
77523;SHT31;66637;-29.628;-49.938;2023-02-04T07:33:27;24.44;68.73
77523;SHT31;66637;-29.628;-49.938;2023-02-04T07:35:57;24.56;68.20
77523;SHT31;66637;-29.628;-49.938;2023-02-04T07:38:27;24.61;67.89
77523;SHT31;66637;-29.628;-49.938;2023-02-04T07:40:57;24.60;67.79
77523;SHT31;66637;-29.628;-49.938;2023-02-04T07:43:28;24.64;67.98
77523;SHT31;66637;-29.628;-49.938;2023-02-04T07:45:57;24.63;67.99
77523;SHT31;66637;-29.628;-49.938;2023-02-04T07:48:28;24.67;67.70
77523;SHT31;66637;-29.628;-49.938;2023-02-04T07:50:58;24.67;68.19
77523;SHT31;66637;-29.628;-49.938;2023-02-04T07:53:28;24.66;68.61
77523;SHT31;66637;-29.628;-49.938;2023-02-04T07:55:58;24.63;68.98
77523;SHT31;66637;-29.628;-49.938;2023-02-04T07:58:28;24.60;68.97
77523;SHT31;66637;-29.628;-49.938;2023-02-04T08:00:58;24.60;69.40
77523;SHT31;66637;-29.628;-49.938;2023-02-04T08:03:29;24.60;68.89
77523;SHT31;66637;-29.628;-49.938;2023-02-04T08:06:01;24.56;69.07
77523;SHT31;66637;-29.628;-49.938;2023-02-04T08:08:31;24.52;69.29
77523;SHT31;66637;-29.628;-49.938;2023-02-04T08:11:01;24.47;69.13
77523;SHT31;66637;-29.628;-49.938;2023-02-04T08:13:31;24.47;69.04
77523;SHT31;66637;-29.628;-49.938;2023-02-04T08:16:01;24.47;69.21
77523;SHT31;66637;-29.628;-49.938;2023-02-04T08:18:31;24.46;69.17
77523;SHT31;66637;-29.628;-49.938;2023-02-04T08:21:01;24.46;69.27
77523;SHT31;66637;-29.628;-49.938;2023-02-04T08:23:33;24.43;69.19
77523;SHT31;66637;-29.628;-49.938;2023-02-04T08:26:03;24.43;69.15
77523;SHT31;66637;-29.628;-49.938;2023-02-04T08:28:34;24.44;69.30
77523;SHT31;66637;-29.628;-49.938;2023-02-04T08:31:07;24.46;69.27
77523;SHT31;66637;-29.628;-49.938;2023-02-04T08:33:40;24.50;69.04
77523;SHT31;66637;-29.628;-49.938;2023-02-04T08:36:10;24.49;69.41
77523;SHT31;66637;-29.628;-49.938;2023-02-04T08:38:40;24.52;68.84
77523;SHT31;66637;-29.628;-49.938;2023-02-04T08:41:10;24.52;68.66
77523;SHT31;66637;-29.628;-49.938;2023-02-04T08:43:40;24.56;68.38
77523;SHT31;66637;-29.628;-49.938;2023-02-04T08:46:10;24.55;68.57
77523;SHT31;66637;-29.628;-49.938;2023-02-04T08:48:40;24.53;68.66
77523;SHT31;66637;-29.628;-49.938;2023-02-04T08:51:09;24.56;68.53
77523;SHT31;66637;-29.628;-49.938;2023-02-04T08:53:40;24.56;68.19
77523;SHT31;66637;-29.628;-49.938;2023-02-04T08:56:09;24.57;68.41
77523;SHT31;66637;-29.628;-49.938;2023-02-04T08:58:44;24.63;68.58
77523;SHT31;66637;-29.628;-49.938;2023-02-04T09:01:14;24.57;67.87
77523;SHT31;66637;-29.628;-49.938;2023-02-04T09:03:45;24.59;68.00
77523;SHT31;66637;-29.628;-49.938;2023-02-04T09:06:14;24.66;67.64
77523;SHT31;66637;-29.628;-49.938;2023-02-04T09:08:44;24.66;67.61
77523;SHT31;66637;-29.628;-49.938;2023-02-04T09:11:14;24.64;67.84
77523;SHT31;66637;-29.628;-49.938;2023-02-04T09:13:44;24.60;68.06
77523;SHT31;66637;-29.628;-49.938;2023-02-04T09:16:14;24.53;68.84
77523;SHT31;66637;-29.628;-49.938;2023-02-04T09:18:46;24.50;69.75
77523;SHT31;66637;-29.628;-49.938;2023-02-04T09:21:16;24.56;68.73
77523;SHT31;66637;-29.628;-49.938;2023-02-04T09:23:45;24.69;67.76
77523;SHT31;66637;-29.628;-49.938;2023-02-04T09:26:16;24.86;67.12
77523;SHT31;66637;-29.628;-49.938;2023-02-04T09:28:47;24.92;66.55
77523;SHT31;66637;-29.628;-49.938;2023-02-04T09:31:17;25.03;65.89
77523;SHT31;66637;-29.628;-49.938;2023-02-04T09:33:47;25.06;65.84
77523;SHT31;66637;-29.628;-49.938;2023-02-04T09:36:17;25.10;65.90
77523;SHT31;66637;-29.628;-49.938;2023-02-04T09:38:47;25.17;65.84
77523;SHT31;66637;-29.628;-49.938;2023-02-04T09:41:17;25.25;65.46
77523;SHT31;66637;-29.628;-49.938;2023-02-04T09:43:47;25.41;64.24
77523;SHT31;66637;-29.628;-49.938;2023-02-04T09:46:22;25.52;64.08
77523;SHT31;66637;-29.628;-49.938;2023-02-04T09:48:53;25.69;63.28
77523;SHT31;66637;-29.628;-49.938;2023-02-04T09:51:29;25.82;63.97
77523;SHT31;66637;-29.628;-49.938;2023-02-04T09:54:08;25.85;63.21
77523;SHT31;66637;-29.628;-49.938;2023-02-04T09:56:40;25.86;63.23
77523;SHT31;66637;-29.628;-49.938;2023-02-04T09:59:15;25.93;63.42
77523;SHT31;66637;-29.628;-49.938;2023-02-04T10:01:56;26.06;63.25
77523;SHT31;66637;-29.628;-49.938;2023-02-04T10:04:27;26.16;62.95
77523;SHT31;66637;-29.628;-49.938;2023-02-04T10:06:57;26.19;62.12
77523;SHT31;66637;-29.628;-49.938;2023-02-04T10:09:27;26.23;61.42
77523;SHT31;66637;-29.628;-49.938;2023-02-04T10:11:57;26.20;62.26
77523;SHT31;66637;-29.628;-49.938;2023-02-04T10:14:27;26.20;61.85
77523;SHT31;66637;-29.628;-49.938;2023-02-04T10:16:59;26.23;62.74
77523;SHT31;66637;-29.628;-49.938;2023-02-04T10:19:30;26.22;63.26
77523;SHT31;66637;-29.628;-49.938;2023-02-04T10:22:02;26.07;64.33
77523;SHT31;66637;-29.628;-49.938;2023-02-04T10:24:34;26.07;63.72
77523;SHT31;66637;-29.628;-49.938;2023-02-04T10:27:14;26.12;63.77
77523;SHT31;66637;-29.628;-49.938;2023-02-04T10:29:57;26.20;62.84
77523;SHT31;66637;-29.628;-49.938;2023-02-04T10:32:57;26.29;62.42
77523;SHT31;66637;-29.628;-49.938;2023-02-04T10:35:28;26.20;62.75
77523;SHT31;66637;-29.628;-49.938;2023-02-04T10:38:05;26.24;63.65
77523;SHT31;66637;-29.628;-49.938;2023-02-04T10:40:36;26.20;62.88
77523;SHT31;66637;-29.628;-49.938;2023-02-04T10:43:17;26.14;63.21
77523;SHT31;66637;-29.628;-49.938;2023-02-04T10:45:57;26.07;63.58
77523;SHT31;66637;-29.628;-49.938;2023-02-04T10:48:28;26.02;63.37
77523;SHT31;66637;-29.628;-49.938;2023-02-04T10:50:59;26.09;63.77
77523;SHT31;66637;-29.628;-49.938;2023-02-04T10:53:29;26.09;63.26
77523;SHT31;66637;-29.628;-49.938;2023-02-04T10:56:21;26.14;63.04
77523;SHT31;66637;-29.628;-49.938;2023-02-04T10:58:51;26.16;63.61
77523;SHT31;66637;-29.628;-49.938;2023-02-04T11:01:20;26.26;63.30
77523;SHT31;66637;-29.628;-49.938;2023-02-04T11:03:51;26.29;63.20
77523;SHT31;66637;-29.628;-49.938;2023-02-04T11:06:23;26.34;62.77
77523;SHT31;66637;-29.628;-49.938;2023-02-04T11:08:53;26.33;63.25
77523;SHT31;66637;-29.628;-49.938;2023-02-04T11:11:25;26.39;62.84
77523;SHT31;66637;-29.628;-49.938;2023-02-04T11:16:26;26.34;62.23
77523;SHT31;66637;-29.628;-49.938;2023-02-04T11:19:05;26.46;63.30
77523;SHT31;66637;-29.628;-49.938;2023-02-04T11:21:40;26.53;61.86
77523;SHT31;66637;-29.628;-49.938;2023-02-04T11:27:37;26.71;62.22
77523;SHT31;66637;-29.628;-49.938;2023-02-04T11:29:41;26.83;61.88
77523;SHT31;66637;-29.628;-49.938;2023-02-04T11:32:43;27.04;61.44
77523;SHT31;66637;-29.628;-49.938;2023-02-04T11:37:43;27.27;60.61
77523;SHT31;66637;-29.628;-49.938;2023-02-04T11:40:27;27.42;61.10
77523;SHT31;66637;-29.628;-49.938;2023-02-04T11:43:11;28.14;59.03
77523;SHT31;66637;-29.628;-49.938;2023-02-04T11:45:42;28.06;59.12
77523;SHT31;66637;-29.628;-49.938;2023-02-04T11:48:16;28.17;56.16
77523;SHT31;66637;-29.628;-49.938;2023-02-04T11:51:01;29.67;54.44
77523;SHT31;66637;-29.628;-49.938;2023-02-04T11:53:33;30.13;50.26
77523;SHT31;66637;-29.628;-49.938;2023-02-04T11:56:04;29.80;50.93
77523;SHT31;66637;-29.628;-49.938;2023-02-04T11:58:38;29.69;52.95
77523;SHT31;66637;-29.628;-49.938;2023-02-04T12:01:20;29.86;51.29
77523;SHT31;66637;-29.628;-49.938;2023-02-04T12:04:00;29.66;52.31
77523;SHT31;66637;-29.628;-49.938;2023-02-04T12:06:34;29.73;52.17
77523;SHT31;66637;-29.628;-49.938;2023-02-04T12:09:31;29.84;52.00
77523;SHT31;66637;-29.628;-49.938;2023-02-04T12:12:02;30.06;51.63
77523;SHT31;66637;-29.628;-49.938;2023-02-04T12:14:35;30.04;51.42
77523;SHT31;66637;-29.628;-49.938;2023-02-04T12:17:32;29.57;53.80
77523;SHT31;66637;-29.628;-49.938;2023-02-04T12:20:02;29.59;53.81
77523;SHT31;66637;-29.628;-49.938;2023-02-04T12:22:32;30.47;49.97
77523;SHT31;66637;-29.628;-49.938;2023-02-04T12:25:04;30.23;50.32
77523;SHT31;66637;-29.628;-49.938;2023-02-04T12:27:35;30.06;50.90
77523;SHT31;66637;-29.628;-49.938;2023-02-04T12:30:05;30.18;49.27
77523;SHT31;66637;-29.628;-49.938;2023-02-04T12:32:39;31.12;49.45
77523;SHT31;66637;-29.628;-49.938;2023-02-04T12:35:10;31.47;47.15
77523;SHT31;66637;-29.628;-49.938;2023-02-04T12:37:40;31.54;47.90
77523;SHT31;66637;-29.628;-49.938;2023-02-04T12:40:18;31.95;48.14
77523;SHT31;66637;-29.628;-49.938;2023-02-04T12:42:48;32.29;47.16
77523;SHT31;66637;-29.628;-49.938;2023-02-04T12:45:19;32.62;47.20
77523;SHT31;66637;-29.628;-49.938;2023-02-04T12:47:49;32.66;45.88
77523;SHT31;66637;-29.628;-49.938;2023-02-04T12:50:19;32.74;47.73
77523;SHT31;66637;-29.628;-49.938;2023-02-04T12:52:54;32.54;47.49
77523;SHT31;66637;-29.628;-49.938;2023-02-04T12:55:27;32.38;47.61
77523;SHT31;66637;-29.628;-49.938;2023-02-04T12:57:58;32.71;47.97
77523;SHT31;66637;-29.628;-49.938;2023-02-04T13:00:32;32.92;48.23
77523;SHT31;66637;-29.628;-49.938;2023-02-04T13:03:08;32.76;47.72
77523;SHT31;66637;-29.628;-49.938;2023-02-04T13:05:50;32.83;47.12
77523;SHT31;66637;-29.628;-49.938;2023-02-04T13:08:21;32.89;47.06
77523;SHT31;66637;-29.628;-49.938;2023-02-04T13:10:53;32.82;47.66
77523;SHT31;66637;-29.628;-49.938;2023-02-04T13:13:23;32.95;47.81
77523;SHT31;66637;-29.628;-49.938;2023-02-04T13:15:56;33.17;47.32
77523;SHT31;66637;-29.628;-49.938;2023-02-04T13:18:28;32.92;47.28
77523;SHT31;66637;-29.628;-49.938;2023-02-04T13:21:00;32.92;47.24
77523;SHT31;66637;-29.628;-49.938;2023-02-04T13:23:31;33.16;48.00
77523;SHT31;66637;-29.628;-49.938;2023-02-04T13:26:04;32.42;49.34
77523;SHT31;66637;-29.628;-49.938;2023-02-04T13:28:35;32.64;48.42
77523;SHT31;66637;-29.628;-49.938;2023-02-04T13:31:06;32.99;48.22
77523;SHT31;66637;-29.628;-49.938;2023-02-04T13:33:36;33.05;48.73
77523;SHT31;66637;-29.628;-49.938;2023-02-04T13:36:10;32.31;49.87
77523;SHT31;66637;-29.628;-49.938;2023-02-04T13:38:40;31.93;49.03
77523;SHT31;66637;-29.628;-49.938;2023-02-04T13:41:11;30.69;51.49
77523;SHT31;66637;-29.628;-49.938;2023-02-04T13:43:51;32.24;50.00
77523;SHT31;66637;-29.628;-49.938;2023-02-04T13:46:21;31.34;50.28
77523;SHT31;66637;-29.628;-49.938;2023-02-04T13:49:19;32.28;49.21
77523;SHT31;66637;-29.628;-49.938;2023-02-04T13:51:53;32.11;50.05
77523;SHT31;66637;-29.628;-49.938;2023-02-04T13:54:32;32.23;49.24
77523;SHT31;66637;-29.628;-49.938;2023-02-04T13:57:07;32.03;49.98
77523;SHT31;66637;-29.628;-49.938;2023-02-04T13:59:56;32.61;49.32
77523;SHT31;66637;-29.628;-49.938;2023-02-04T14:02:27;32.68;49.42
77523;SHT31;66637;-29.628;-49.938;2023-02-04T14:04:59;33.05;49.04
77523;SHT31;66637;-29.628;-49.938;2023-02-04T14:07:30;32.21;48.99
77523;SHT31;66637;-29.628;-49.938;2023-02-04T14:10:02;32.56;50.18
77523;SHT31;66637;-29.628;-49.938;2023-02-04T14:12:37;32.10;49.16
77523;SHT31;66637;-29.628;-49.938;2023-02-04T14:15:34;32.32;49.57
77523;SHT31;66637;-29.628;-49.938;2023-02-04T14:18:07;31.67;49.66
77523;SHT31;66637;-29.628;-49.938;2023-02-04T14:20:38;31.13;51.55
77523;SHT31;66637;-29.628;-49.938;2023-02-04T14:23:09;31.67;51.08
77523;SHT31;66637;-29.628;-49.938;2023-02-04T14:25:43;31.32;50.70
77523;SHT31;66637;-29.628;-49.938;2023-02-04T14:28:14;31.94;50.51
77523;SHT31;66637;-29.628;-49.938;2023-02-04T14:30:44;32.49;50.68
77523;SHT31;66637;-29.628;-49.938;2023-02-04T14:33:14;32.42;48.86
77523;SHT31;66637;-29.628;-49.938;2023-02-04T14:35:49;32.61;48.42
77523;SHT31;66637;-29.628;-49.938;2023-02-04T14:38:20;33.31;48.24
77523;SHT31;66637;-29.628;-49.938;2023-02-04T14:40:53;33.77;45.29
77523;SHT31;66637;-29.628;-49.938;2023-02-04T14:43:25;33.87;46.47
77523;SHT31;66637;-29.628;-49.938;2023-02-04T14:45:57;33.71;47.52
77523;SHT31;66637;-29.628;-49.938;2023-02-04T14:48:29;33.87;45.96
77523;SHT31;66637;-29.628;-49.938;2023-02-04T14:50:59;33.98;46.72
77523;SHT31;66637;-29.628;-49.938;2023-02-04T14:53:29;34.00;45.15
77523;SHT31;66637;-29.628;-49.938;2023-02-04T14:56:00;33.76;46.37
77523;SHT31;66637;-29.628;-49.938;2023-02-04T14:58:30;33.93;47.04
77523;SHT31;66637;-29.628;-49.938;2023-02-04T15:01:00;34.24;44.92
77523;SHT31;66637;-29.628;-49.938;2023-02-04T15:03:30;34.55;45.01
77523;SHT31;66637;-29.628;-49.938;2023-02-04T15:06:02;34.69;43.38
77523;SHT31;66637;-29.628;-49.938;2023-02-04T15:08:32;34.70;43.36
77523;SHT31;66637;-29.628;-49.938;2023-02-04T15:11:06;34.19;45.02
77523;SHT31;66637;-29.628;-49.938;2023-02-04T15:13:38;34.38;44.69
77523;SHT31;66637;-29.628;-49.938;2023-02-04T15:16:37;33.96;44.31
77523;SHT31;66637;-29.628;-49.938;2023-02-04T15:19:22;34.21;43.48
77523;SHT31;66637;-29.628;-49.938;2023-02-04T15:21:54;34.82;42.69
77523;SHT31;66637;-29.628;-49.938;2023-02-04T15:24:25;35.07;42.26